sensor_id;sensor_type;location;lat;lon;timestamp;pressure;altitude;pressure_sealevel;temperature;humidity
19086;BME280;9675;51.538;6.728;2023-02-11T00:01:27;103096.81;;;7.43;100.00
19086;BME280;9675;51.538;6.728;2023-02-11T00:03:56;103087.16;;;7.40;100.00
19086;BME280;9675;51.538;6.728;2023-02-11T00:06:25;103089.72;;;7.40;100.00
19086;BME280;9675;51.538;6.728;2023-02-11T00:08:53;103079.31;;;7.39;100.00
19086;BME280;9675;51.538;6.728;2023-02-11T00:11:23;103086.09;;;7.38;100.00
19086;BME280;9675;51.538;6.728;2023-02-11T00:13:51;103088.06;;;7.41;100.00
19086;BME280;9675;51.538;6.728;2023-02-11T00:16:20;103080.38;;;7.41;100.00
19086;BME280;9675;51.538;6.728;2023-02-11T00:18:47;103074.94;;;7.38;100.00
19086;BME280;9675;51.538;6.728;2023-02-11T00:21:18;103074.94;;;7.38;100.00
19086;BME280;9675;51.538;6.728;2023-02-11T00:23:46;103072.22;;;7.36;100.00
19086;BME280;9675;51.538;6.728;2023-02-11T00:26:17;103071.34;;;7.36;100.00
19086;BME280;9675;51.538;6.728;2023-02-11T00:28:46;103073.75;;;7.34;100.00
19086;BME280;9675;51.538;6.728;2023-02-11T00:31:16;103065.75;;;7.31;100.00
19086;BME280;9675;51.538;6.728;2023-02-11T00:33:45;103074.66;;;7.35;100.00
19086;BME280;9675;51.538;6.728;2023-02-11T00:36:17;103069.22;;;7.32;100.00
19086;BME280;9675;51.538;6.728;2023-02-11T00:38:45;103070.88;;;7.31;100.00
19086;BME280;9675;51.538;6.728;2023-02-11T00:41:13;103069.22;;;7.32;100.00
19086;BME280;9675;51.538;6.728;2023-02-11T00:43:41;103065.00;;;7.32;100.00
19086;BME280;9675;51.538;6.728;2023-02-11T00:46:09;103069.22;;;7.32;100.00
19086;BME280;9675;51.538;6.728;2023-02-11T00:48:36;103065.63;;;7.30;100.00
19086;BME280;9675;51.538;6.728;2023-02-11T00:51:06;103059.72;;;7.31;100.00
19086;BME280;9675;51.538;6.728;2023-02-11T00:53:33;103058.97;;;7.32;100.00
19086;BME280;9675;51.538;6.728;2023-02-11T00:56:01;103056.28;;;7.30;100.00
19086;BME280;9675;51.538;6.728;2023-02-11T00:58:28;103056.13;;;7.29;100.00
19086;BME280;9675;51.538;6.728;2023-02-11T01:00:56;103052.63;;;7.28;100.00
19086;BME280;9675;51.538;6.728;2023-02-11T01:03:23;103067.84;;;7.26;100.00
19086;BME280;9675;51.538;6.728;2023-02-11T01:05:51;103064.38;;;7.26;100.00
19086;BME280;9675;51.538;6.728;2023-02-11T01:08:19;103064.38;;;7.26;100.00
19086;BME280;9675;51.538;6.728;2023-02-11T01:10:54;103071.16;;;7.25;100.00
19086;BME280;9675;51.538;6.728;2023-02-11T01:13:22;103067.72;;;7.25;100.00
19086;BME280;9675;51.538;6.728;2023-02-11T01:15:49;103066.81;;;7.24;100.00
19086;BME280;9675;51.538;6.728;2023-02-11T01:18:17;103069.38;;;7.24;100.00
19086;BME280;9675;51.538;6.728;2023-02-11T01:20:44;103062.28;;;7.22;100.00
19086;BME280;9675;51.538;6.728;2023-02-11T01:23:11;103062.44;;;7.23;100.00
19086;BME280;9675;51.538;6.728;2023-02-11T01:25:40;103068.31;;;7.22;100.00
19086;BME280;9675;51.538;6.728;2023-02-11T01:28:15;103069.22;;;7.23;100.00
19086;BME280;9675;51.538;6.728;2023-02-11T01:30:42;103071.63;;;7.21;100.00
19086;BME280;9675;51.538;6.728;2023-02-11T01:33:10;103065.47;;;7.19;100.00
19086;BME280;9675;51.538;6.728;2023-02-11T01:35:38;103062.91;;;7.19;100.00
19086;BME280;9675;51.538;6.728;2023-02-11T01:38:06;103069.06;;;7.21;100.00
19086;BME280;9675;51.538;6.728;2023-02-11T01:40:33;103059.56;;;7.20;100.00
19086;BME280;9675;51.538;6.728;2023-02-11T01:43:02;103061.09;;;7.18;100.00
19086;BME280;9675;51.538;6.728;2023-02-11T01:45:58;103066.97;;;7.17;100.00
19086;BME280;9675;51.538;6.728;2023-02-11T01:48:31;103046.31;;;7.16;100.00
19086;BME280;9675;51.538;6.728;2023-02-11T01:51:06;103047.22;;;7.16;100.00
19086;BME280;9675;51.538;6.728;2023-02-11T01:53:35;103032.75;;;7.17;100.00
19086;BME280;9675;51.538;6.728;2023-02-11T01:56:24;103030.03;;;7.15;100.00
19086;BME280;9675;51.538;6.728;2023-02-11T01:59:16;103023.13;;;7.14;100.00
19086;BME280;9675;51.538;6.728;2023-02-11T02:01:50;103032.59;;;7.15;100.00
19086;BME280;9675;51.538;6.728;2023-02-11T02:04:20;103036.84;;;7.15;100.00
19086;BME280;9675;51.538;6.728;2023-02-11T02:06:59;103043.00;;;7.08;100.00
19086;BME280;9675;51.538;6.728;2023-02-11T02:09:36;103043.28;;;7.11;100.00
19086;BME280;9675;51.538;6.728;2023-02-11T02:12:04;103043.28;;;7.11;100.00
19086;BME280;9675;51.538;6.728;2023-02-11T02:14:36;103038.91;;;7.10;100.00
19086;BME280;9675;51.538;6.728;2023-02-11T02:17:04;103034.56;;;7.09;100.00
19086;BME280;9675;51.538;6.728;2023-02-11T02:23:20;103020.06;;;7.10;100.00
19086;BME280;9675;51.538;6.728;2023-02-11T02:29:35;103021.59;;;7.08;100.00
19086;BME280;9675;51.538;6.728;2023-02-11T02:32:30;103025.81;;;7.07;100.00
19086;BME280;9675;51.538;6.728;2023-02-11T02:35:10;103024.75;;;7.05;100.00
19086;BME280;9675;51.538;6.728;2023-02-11T02:37:46;103030.94;;;7.07;100.00
19086;BME280;9675;51.538;6.728;2023-02-11T02:40:23;103026.72;;;7.08;100.00
19086;BME280;9675;51.538;6.728;2023-02-11T02:42:53;103030.94;;;7.07;100.00
19086;BME280;9675;51.538;6.728;2023-02-11T02:45:21;103024.91;;;7.07;100.00
19086;BME280;9675;51.538;6.728;2023-02-11T02:47:49;103013.75;;;7.06;100.00
19086;BME280;9675;51.538;6.728;2023-02-11T02:50:26;103019.63;;;7.05;100.00
19086;BME280;9675;51.538;6.728;2023-02-11T02:53:10;103017.06;;;7.05;100.00
19086;BME280;9675;51.538;6.728;2023-02-11T02:55:53;103010.28;;;7.06;100.00
19086;BME280;9675;51.538;6.728;2023-02-11T02:58:54;102997.47;;;7.06;100.00
19086;BME280;9675;51.538;6.728;2023-02-11T03:01:41;103005.03;;;7.04;100.00
19086;BME280;9675;51.538;6.728;2023-02-11T03:04:22;103005.03;;;7.04;100.00
19086;BME280;9675;51.538;6.728;2023-02-11T03:06:59;102992.06;;;7.03;100.00
19086;BME280;9675;51.538;6.728;2023-02-11T03:09:35;103003.22;;;7.03;100.00
19086;BME280;9675;51.538;6.728;2023-02-11T03:12:06;103007.44;;;7.03;100.00
19086;BME280;9675;51.538;6.728;2023-02-11T03:14:35;103006.38;;;7.01;100.00
19086;BME280;9675;51.538;6.728;2023-02-11T03:17:06;102999.59;;;7.01;100.00
19086;BME280;9675;51.538;6.728;2023-02-11T03:19:39;103008.34;;;7.03;100.00
19086;BME280;9675;51.538;6.728;2023-02-11T03:22:16;103006.38;;;7.01;100.00
19086;BME280;9675;51.538;6.728;2023-02-11T03:24:45;103026.75;;;6.99;100.00
19086;BME280;9675;51.538;6.728;2023-02-11T03:27:20;103015.44;;;6.97;100.00
19086;BME280;9675;51.538;6.728;2023-02-11T03:29:58;103022.50;;;7.00;100.00
19086;BME280;9675;51.538;6.728;2023-02-11T03:32:31;103014.06;;;7.01;100.00
19086;BME280;9675;51.538;6.728;2023-02-11T03:35:09;103019.06;;;6.99;100.00
19086;BME280;9675;51.538;6.728;2023-02-11T03:37:41;103018.16;;;6.99;100.00
19086;BME280;9675;51.538;6.728;2023-02-11T03:40:12;103016.50;;;6.99;100.00
19086;BME280;9675;51.538;6.728;2023-02-11T03:42:47;103014.69;;;6.98;100.00
19086;BME280;9675;51.538;6.728;2023-02-11T03:45:21;103011.97;;;6.97;100.00
19086;BME280;9675;51.538;6.728;2023-02-11T03:47:53;103006.84;;;6.97;100.00
19086;BME280;9675;51.538;6.728;2023-02-11T03:50:25;103006.84;;;6.97;100.00
19086;BME280;9675;51.538;6.728;2023-02-11T03:52:56;103005.94;;;6.96;100.00
19086;BME280;9675;51.538;6.728;2023-02-11T03:55:27;103005.03;;;6.96;100.00
19086;BME280;9675;51.538;6.728;2023-02-11T03:57:55;103000.81;;;6.96;100.00
19086;BME280;9675;51.538;6.728;2023-02-11T04:00:30;102987.72;;;6.93;100.00
19086;BME280;9675;51.538;6.728;2023-02-11T04:02:57;102987.72;;;6.93;100.00
19086;BME280;9675;51.538;6.728;2023-02-11T04:05:25;102990.28;;;6.93;100.00
19086;BME280;9675;51.538;6.728;2023-02-11T04:07:52;102994.50;;;6.93;100.00
19086;BME280;9675;51.538;6.728;2023-02-11T04:10:20;102993.59;;;6.92;100.00
19086;BME280;9675;51.538;6.728;2023-02-11T04:12:47;102993.59;;;6.92;100.00
19086;BME280;9675;51.538;6.728;2023-02-11T04:15:14;102996.88;;;6.91;100.00
19086;BME280;9675;51.538;6.728;2023-02-11T04:17:41;103000.19;;;6.90;100.00
19086;BME280;9675;51.538;6.728;2023-02-11T04:20:10;102999.44;;;6.91;100.00
19086;BME280;9675;51.538;6.728;2023-02-11T04:22:39;102999.44;;;6.91;100.00
19086;BME280;9675;51.538;6.728;2023-02-11T04:25:08;103002.16;;;6.93;100.00
19086;BME280;9675;51.538;6.728;2023-02-11T04:27:35;103006.97;;;6.90;100.00
19086;BME280;9675;51.538;6.728;2023-02-11T04:30:04;103009.25;;;6.87;100.00
19086;BME280;9675;51.538;6.728;2023-02-11T04:32:31;103009.25;;;6.87;100.00
19086;BME280;9675;51.538;6.728;2023-02-11T04:34:58;103015.44;;;6.89;100.00
19086;BME280;9675;51.538;6.728;2023-02-11T04:37:26;103021.44;;;6.89;100.00
19086;BME280;9675;51.538;6.728;2023-02-11T04:39:54;103034.22;;;6.89;100.00
19086;BME280;9675;51.538;6.728;2023-02-11T04:42:22;103022.94;;;6.87;100.00
19086;BME280;9675;51.538;6.728;2023-02-11T04:44:49;103028.06;;;6.87;100.00
19086;BME280;9675;51.538;6.728;2023-02-11T04:47:16;103029.72;;;6.87;100.00
19086;BME280;9675;51.538;6.728;2023-02-11T04:49:43;103026.44;;;6.88;100.00
19086;BME280;9675;51.538;6.728;2023-02-11T04:52:10;103016.19;;;6.88;100.00
19086;BME280;9675;51.538;6.728;2023-02-11T04:54:38;103001.41;;;6.85;100.00
19086;BME280;9675;51.538;6.728;2023-02-11T04:57:06;102999.59;;;6.84;100.00
19086;BME280;9675;51.538;6.728;2023-02-11T04:59:33;102999.59;;;6.84;100.00
19086;BME280;9675;51.538;6.728;2023-02-11T05:02:00;103001.13;;;6.82;100.00
19086;BME280;9675;51.538;6.728;2023-02-11T05:04:28;103002.59;;;6.80;100.00
19086;BME280;9675;51.538;6.728;2023-02-11T05:06:55;102998.22;;;6.79;100.00
19086;BME280;9675;51.538;6.728;2023-02-11T05:09:22;103005.91;;;6.79;100.00
19086;BME280;9675;51.538;6.728;2023-02-11T05:11:50;103003.34;;;6.79;100.00
19086;BME280;9675;51.538;6.728;2023-02-11T05:14:18;103005.91;;;6.79;100.00
19086;BME280;9675;51.538;6.728;2023-02-11T05:16:45;102997.47;;;6.80;100.00
19086;BME280;9675;51.538;6.728;2023-02-11T05:19:12;102995.66;;;6.79;100.00
19086;BME280;9675;51.538;6.728;2023-02-11T05:21:39;103000.66;;;6.77;100.00
19086;BME280;9675;51.538;6.728;2023-02-11T05:24:07;102999.75;;;6.77;100.00
19086;BME280;9675;51.538;6.728;2023-02-11T05:26:34;102999.91;;;6.78;100.00
19086;BME280;9675;51.538;6.728;2023-02-11T05:29:01;103003.22;;;6.77;100.00
19086;BME280;9675;51.538;6.728;2023-02-11T05:31:30;103000.66;;;6.77;100.00
19086;BME280;9675;51.538;6.728;2023-02-11T05:33:57;102998.84;;;6.76;100.00
19086;BME280;9675;51.538;6.728;2023-02-11T05:36:24;103000.81;;;6.88;100.00
19086;BME280;9675;51.538;6.728;2023-02-11T05:38:51;103005.31;;;6.90;100.00
19086;BME280;9675;51.538;6.728;2023-02-11T05:41:18;102991.75;;;6.91;100.00
19086;BME280;9675;51.538;6.728;2023-02-11T05:43:47;102999.44;;;6.91;100.00
19086;BME280;9675;51.538;6.728;2023-02-11T05:46:16;103005.63;;;6.84;100.00
19086;BME280;9675;51.538;6.728;2023-02-11T05:48:45;102994.66;;;6.94;100.00
19086;BME280;9675;51.538;6.728;2023-02-11T05:51:12;102988.75;;;6.95;100.00
19086;BME280;9675;51.538;6.728;2023-02-11T05:53:39;102980.31;;;6.96;100.00
19086;BME280;9675;51.538;6.728;2023-02-11T05:56:06;102969.16;;;6.96;100.00
19086;BME280;9675;51.538;6.728;2023-02-11T05:58:35;102971.88;;;6.97;100.00
19086;BME280;9675;51.538;6.728;2023-02-11T06:01:03;102973.38;;;6.95;100.00
19086;BME280;9675;51.538;6.728;2023-02-11T06:03:30;102976.72;;;6.94;100.00
19086;BME280;9675;51.538;6.728;2023-02-11T06:05:59;102981.84;;;6.94;100.00
19086;BME280;9675;51.538;6.728;2023-02-11T06:08:26;102983.63;;;6.95;100.00
19086;BME280;9675;51.538;6.728;2023-02-11T06:10:53;102986.97;;;6.94;100.00
19086;BME280;9675;51.538;6.728;2023-02-11T06:13:20;102997.22;;;6.94;100.00
19086;BME280;9675;51.538;6.728;2023-02-11T06:15:55;102992.09;;;6.94;100.00
19086;BME280;9675;51.538;6.728;2023-02-11T06:18:23;102990.28;;;6.93;100.00
19086;BME280;9675;51.538;6.728;2023-02-11T06:20:50;103006.53;;;6.85;100.00
19086;BME280;9675;51.538;6.728;2023-02-11T06:23:18;103005.91;;;6.79;100.00
19086;BME280;9675;51.538;6.728;2023-02-11T06:25:45;103009.25;;;6.78;100.00
19086;BME280;9675;51.538;6.728;2023-02-11T06:28:12;103007.13;;;6.91;100.00
19086;BME280;9675;51.538;6.728;2023-02-11T06:30:39;103001.56;;;6.95;100.00
19086;BME280;9675;51.538;6.728;2023-02-11T06:33:06;102995.84;;;6.80;100.00
19086;BME280;9675;51.538;6.728;2023-02-11T06:35:33;102998.09;;;6.77;100.00
19086;BME280;9675;51.538;6.728;2023-02-11T06:38:01;102997.94;;;6.76;100.00
19086;BME280;9675;51.538;6.728;2023-02-11T06:40:29;103000.50;;;6.76;100.00
19086;BME280;9675;51.538;6.728;2023-02-11T06:42:56;103007.09;;;6.74;100.00
19086;BME280;9675;51.538;6.728;2023-02-11T06:45:23;103006.25;;;6.73;100.00
19086;BME280;9675;51.538;6.728;2023-02-11T06:47:51;103003.50;;;6.72;100.00
19086;BME280;9675;51.538;6.728;2023-02-11T06:50:18;103006.81;;;6.71;100.00
19086;BME280;9675;51.538;6.728;2023-02-11T06:52:45;103007.72;;;6.71;100.00
19086;BME280;9675;51.538;6.728;2023-02-11T06:55:13;103011.19;;;6.72;100.00
19086;BME280;9675;51.538;6.728;2023-02-11T06:57:41;103016.31;;;6.72;100.00
19086;BME280;9675;51.538;6.728;2023-02-11T07:00:10;103010.28;;;6.71;100.00
19086;BME280;9675;51.538;6.728;2023-02-11T07:02:38;103010.13;;;6.70;100.00
19086;BME280;9675;51.538;6.728;2023-02-11T07:05:06;103010.13;;;6.70;100.00
19086;BME280;9675;51.538;6.728;2023-02-11T07:07:33;103006.66;;;6.69;100.00
19086;BME280;9675;51.538;6.728;2023-02-11T07:10:01;103009.22;;;6.69;100.00
19086;BME280;9675;51.538;6.728;2023-02-11T07:12:29;102999.59;;;6.67;100.00
19086;BME280;9675;51.538;6.728;2023-02-11T07:14:58;103020.38;;;6.70;100.00
19086;BME280;9675;51.538;6.728;2023-02-11T07:17:25;103014.22;;;6.68;100.00
19086;BME280;9675;51.538;6.728;2023-02-11T07:19:52;103024.44;;;6.68;100.00
19086;BME280;9675;51.538;6.728;2023-02-11T07:22:19;103028.78;;;6.69;100.00
19086;BME280;9675;51.538;6.728;2023-02-11T07:24:46;103029.56;;;6.68;100.00
19086;BME280;9675;51.538;6.728;2023-02-11T07:27:13;103032.13;;;6.68;100.00
19086;BME280;9675;51.538;6.728;2023-02-11T07:29:41;103037.53;;;6.79;100.00
19086;BME280;9675;51.538;6.728;2023-02-11T07:32:11;103032.13;;;6.85;100.00
19086;BME280;9675;51.538;6.728;2023-02-11T07:34:39;103034.22;;;6.89;100.00
19086;BME280;9675;51.538;6.728;2023-02-11T07:37:07;103030.81;;;6.89;100.00
19086;BME280;9675;51.538;6.728;2023-02-11T07:39:34;103027.47;;;6.90;100.00
19086;BME280;9675;51.538;6.728;2023-02-11T07:42:02;103035.13;;;6.90;100.00
19086;BME280;9675;51.538;6.728;2023-02-11T07:44:29;103028.25;;;6.89;100.00
19086;BME280;9675;51.538;6.728;2023-02-11T07:46:58;103027.34;;;6.88;100.00
19086;BME280;9675;51.538;6.728;2023-02-11T07:49:26;103029.09;;;6.89;100.00
19086;BME280;9675;51.538;6.728;2023-02-11T07:51:53;103024.00;;;6.89;100.00
19086;BME280;9675;51.538;6.728;2023-02-11T07:54:20;103028.06;;;6.87;100.00
19086;BME280;9675;51.538;6.728;2023-02-11T07:56:47;103034.22;;;6.89;100.00
19086;BME280;9675;51.538;6.728;2023-02-11T07:59:14;103032.44;;;6.88;100.00
19086;BME280;9675;51.538;6.728;2023-02-11T08:01:42;103035.00;;;6.88;100.00
19086;BME280;9675;51.538;6.728;2023-02-11T08:04:09;103021.31;;;6.88;100.00
19086;BME280;9675;51.538;6.728;2023-02-11T08:06:41;103038.91;;;6.84;100.00
19086;BME280;9675;51.538;6.728;2023-02-11T08:09:13;103040.25;;;6.90;100.00
19086;BME280;9675;51.538;6.728;2023-02-11T08:11:41;103044.47;;;6.89;100.00
19086;BME280;9675;51.538;6.728;2023-02-11T08:14:10;103051.13;;;6.87;100.00
19086;BME280;9675;51.538;6.728;2023-02-11T08:16:38;103063.94;;;6.87;100.00
19086;BME280;9675;51.538;6.728;2023-02-11T08:19:09;103052.03;;;6.88;100.00
19086;BME280;9675;51.538;6.728;2023-02-11T08:21:38;103053.84;;;6.89;100.00
19086;BME280;9675;51.538;6.728;2023-02-11T08:24:06;103060.75;;;6.90;100.00
19086;BME280;9675;51.538;6.728;2023-02-11T08:26:34;103064.97;;;6.89;100.00
19086;BME280;9675;51.538;6.728;2023-02-11T08:29:06;103063.44;;;6.74;100.00
19086;BME280;9675;51.538;6.728;2023-02-11T08:31:37;103061.31;;;6.70;100.00
19086;BME280;9675;51.538;6.728;2023-02-11T08:34:05;103068.84;;;6.68;100.00
19086;BME280;9675;51.538;6.728;2023-02-11T08:36:37;103069.75;;;6.69;100.00
19086;BME280;9675;51.538;6.728;2023-02-11T08:39:09;103065.41;;;6.68;100.00
19086;BME280;9675;51.538;6.728;2023-02-11T08:41:38;103067.97;;;6.68;100.00
19086;BME280;9675;51.538;6.728;2023-02-11T08:44:05;103066.28;;;6.68;100.00
19086;BME280;9675;51.538;6.728;2023-02-11T08:46:32;103071.56;;;6.70;100.00
19086;BME280;9675;51.538;6.728;2023-02-11T08:48:59;103076.69;;;6.70;100.00
19086;BME280;9675;51.538;6.728;2023-02-11T08:51:28;103066.44;;;6.70;100.00
19086;BME280;9675;51.538;6.728;2023-02-11T08:53:58;103059.50;;;6.69;100.00
19086;BME280;9675;51.538;6.728;2023-02-11T08:56:27;103058.03;;;6.71;100.00
19086;BME280;9675;51.538;6.728;2023-02-11T08:58:56;103067.53;;;6.72;100.00
19086;BME280;9675;51.538;6.728;2023-02-11T09:01:26;103069.34;;;6.73;100.00
19086;BME280;9675;51.538;6.728;2023-02-11T09:03:54;103071.13;;;6.74;100.00
19086;BME280;9675;51.538;6.728;2023-02-11T09:06:24;103085.59;;;6.73;100.00
19086;BME280;9675;51.538;6.728;2023-02-11T09:08:57;103097.50;;;6.73;100.00
19086;BME280;9675;51.538;6.728;2023-02-11T09:11:27;103091.59;;;6.74;100.00
19086;BME280;9675;51.538;6.728;2023-02-11T09:13:55;103091.59;;;6.74;100.00
19086;BME280;9675;51.538;6.728;2023-02-11T09:16:24;103085.72;;;6.75;100.00
19086;BME280;9675;51.538;6.728;2023-02-11T09:18:52;103092.66;;;6.76;100.00
19086;BME280;9675;51.538;6.728;2023-02-11T09:21:19;103087.56;;;6.76;100.00
19086;BME280;9675;51.538;6.728;2023-02-11T09:23:47;103097.03;;;6.77;100.00
19086;BME280;9675;51.538;6.728;2023-02-11T09:26:19;103091.94;;;6.77;100.00
19086;BME280;9675;51.538;6.728;2023-02-11T09:28:46;103096.31;;;6.78;100.00
19086;BME280;9675;51.538;6.728;2023-02-11T09:31:18;103105.03;;;6.80;100.00
19086;BME280;9675;51.538;6.728;2023-02-11T09:33:50;103096.59;;;6.81;100.00
19086;BME280;9675;51.538;6.728;2023-02-11T09:36:21;103103.69;;;6.83;100.00
19086;BME280;9675;51.538;6.728;2023-02-11T09:38:50;103100.22;;;6.83;100.00
19086;BME280;9675;51.538;6.728;2023-02-11T09:41:40;103104.44;;;6.82;100.00
19086;BME280;9675;51.538;6.728;2023-02-11T09:44:19;103105.34;;;6.83;100.00
19086;BME280;9675;51.538;6.728;2023-02-11T09:46:54;103117.38;;;6.84;100.00
19086;BME280;9675;51.538;6.728;2023-02-11T09:49:31;103113.31;;;6.86;100.00
19086;BME280;9675;51.538;6.728;2023-02-11T09:52:05;103124.47;;;6.87;100.00
19086;BME280;9675;51.538;6.728;2023-02-11T09:54:41;103121.31;;;6.89;100.00
19086;BME280;9675;51.538;6.728;2023-02-11T09:57:13;103123.13;;;6.90;100.00
19086;BME280;9675;51.538;6.728;2023-02-11T09:59:41;103130.06;;;6.91;100.00
19086;BME280;9675;51.538;6.728;2023-02-11T10:02:17;103129.31;;;6.92;100.00
19086;BME280;9675;51.538;6.728;2023-02-11T10:05:16;103128.56;;;6.93;100.00
19086;BME280;9675;51.538;6.728;2023-02-11T10:07:55;103134.72;;;6.95;100.00
19086;BME280;9675;51.538;6.728;2023-02-11T10:10:40;103133.06;;;6.96;100.00
19086;BME280;9675;51.538;6.728;2023-02-11T10:13:34;103134.88;;;6.97;100.00
19086;BME280;9675;51.538;6.728;2023-02-11T10:16:24;103143.03;;;7.01;100.00
19086;BME280;9675;51.538;6.728;2023-02-11T10:19:11;103137.00;;;7.01;100.00
19086;BME280;9675;51.538;6.728;2023-02-11T10:21:51;103136.25;;;7.02;100.00
19086;BME280;9675;51.538;6.728;2023-02-11T10:24:24;103131.31;;;7.03;100.00
19086;BME280;9675;51.538;6.728;2023-02-11T10:26:53;103130.56;;;7.04;100.00
19086;BME280;9675;51.538;6.728;2023-02-11T10:29:37;103141.84;;;7.06;100.00
19086;BME280;9675;51.538;6.728;2023-02-11T10:32:21;103142.75;;;7.07;100.00
19086;BME280;9675;51.538;6.728;2023-02-11T10:34:55;103145.59;;;7.10;100.00
19086;BME280;9675;51.538;6.728;2023-02-11T10:37:24;103150.88;;;7.11;100.00
19086;BME280;9675;51.538;6.728;2023-02-11T10:39:51;103149.97;;;7.11;100.00
19086;BME280;9675;51.538;6.728;2023-02-11T10:42:18;103152.88;;;7.14;100.00
19086;BME280;9675;51.538;6.728;2023-02-11T10:44:57;103163.25;;;7.15;100.00
19086;BME280;9675;51.538;6.728;2023-02-11T10:47:33;103155.72;;;7.17;100.00
19086;BME280;9675;51.538;6.728;2023-02-11T10:50:21;103160.09;;;7.18;100.00
19086;BME280;9675;51.538;6.728;2023-02-11T10:52:48;103161.91;;;7.19;100.00
19086;BME280;9675;51.538;6.728;2023-02-11T10:55:19;103167.16;;;7.20;100.00
19086;BME280;9675;51.538;6.728;2023-02-11T10:57:56;103169.16;;;7.23;100.00
19086;BME280;9675;51.538;6.728;2023-02-11T11:00:36;103165.84;;;7.24;100.00
19086;BME280;9675;51.538;6.728;2023-02-11T11:03:16;103177.00;;;7.24;100.00
19086;BME280;9675;51.538;6.728;2023-02-11T11:05:50;103178.19;;;7.28;100.00
19086;BME280;9675;51.538;6.728;2023-02-11T11:08:18;103173.97;;;7.29;100.00
19086;BME280;9675;51.538;6.728;2023-02-11T11:10:48;103180.16;;;7.31;100.00
19086;BME280;9675;51.538;6.728;2023-02-11T11:13:28;103172.47;;;7.31;100.00
19086;BME280;9675;51.538;6.728;2023-02-11T11:16:20;103170.50;;;7.28;100.00
19086;BME280;9675;51.538;6.728;2023-02-11T11:18:51;103182.28;;;7.35;100.00
19086;BME280;9675;51.538;6.728;2023-02-11T11:21:22;103183.19;;;7.35;100.00
19086;BME280;9675;51.538;6.728;2023-02-11T11:23:56;103184.25;;;7.37;100.00
19086;BME280;9675;51.538;6.728;2023-02-11T11:26:27;103179.84;;;7.36;100.00
19086;BME280;9675;51.538;6.728;2023-02-11T11:28:59;103186.22;;;7.40;100.00
19086;BME280;9675;51.538;6.728;2023-02-11T11:31:32;103187.25;;;7.42;100.00
19086;BME280;9675;51.538;6.728;2023-02-11T11:34:16;103179.28;;;7.39;100.00
19086;BME280;9675;51.538;6.728;2023-02-11T11:36:44;103184.69;;;7.42;100.00
19086;BME280;9675;51.538;6.728;2023-02-11T11:39:20;103180.63;;;7.44;100.00
19086;BME280;9675;51.538;6.728;2023-02-11T11:41:53;103179.88;;;7.45;100.00
19086;BME280;9675;51.538;6.728;2023-02-11T11:44:29;103178.34;;;7.47;100.00
19086;BME280;9675;51.538;6.728;2023-02-11T11:47:33;103169.94;;;7.48;100.00
19086;BME280;9675;51.538;6.728;2023-02-11T11:50:24;103158.91;;;7.49;100.00
19086;BME280;9675;51.538;6.728;2023-02-11T11:53:00;103162.41;;;7.49;100.00
19086;BME280;9675;51.538;6.728;2023-02-11T11:55:36;103165.13;;;7.51;100.00
19086;BME280;9675;51.538;6.728;2023-02-11T11:58:04;103157.56;;;7.52;100.00
19086;BME280;9675;51.538;6.728;2023-02-11T12:00:51;103156.06;;;7.54;100.00
19086;BME280;9675;51.538;6.728;2023-02-11T12:03:58;103161.50;;;7.66;100.00
19086;BME280;9675;51.538;6.728;2023-02-11T12:06:42;103165.84;;;7.67;100.00
19086;BME280;9675;51.538;6.728;2023-02-11T12:09:23;103173.53;;;7.67;100.00
19086;BME280;9675;51.538;6.728;2023-02-11T12:12:22;103162.25;;;7.65;100.00
19086;BME280;9675;51.538;6.728;2023-02-11T12:15:07;103172.50;;;7.65;100.00
19086;BME280;9675;51.538;6.728;2023-02-11T12:18:00;103175.97;;;7.65;100.00
19086;BME280;9675;51.538;6.728;2023-02-11T12:20:45;103171.75;;;7.66;100.00
19086;BME280;9675;51.538;6.728;2023-02-11T12:23:36;103169.94;;;7.65;100.00
19086;BME280;9675;51.538;6.728;2023-02-11T12:26:13;103173.53;;;7.67;100.00
19086;BME280;9675;51.538;6.728;2023-02-11T12:28:59;103174.44;;;7.67;100.00
19086;BME280;9675;51.538;6.728;2023-02-11T12:31:59;103172.78;;;7.68;100.00
19086;BME280;9675;51.538;6.728;2023-02-11T12:35:08;103165.09;;;7.68;100.00
19086;BME280;9675;51.538;6.728;2023-02-11T12:38:08;103170.22;;;7.68;100.00
19086;BME280;9675;51.538;6.728;2023-02-11T12:40:45;103169.63;;;7.71;100.00
19086;BME280;9675;51.538;6.728;2023-02-11T12:43:22;103163.59;;;7.70;100.00
19086;BME280;9675;51.538;6.728;2023-02-11T12:46:07;103159.38;;;7.71;100.00
19086;BME280;9675;51.538;6.728;2023-02-11T12:48:55;103157.72;;;7.71;100.00
19086;BME280;9675;51.538;6.728;2023-02-11T12:51:47;103156.34;;;7.75;100.00
19086;BME280;9675;51.538;6.728;2023-02-11T12:54:27;103153.03;;;7.76;100.00
19086;BME280;9675;51.538;6.728;2023-02-11T12:57:02;103153.03;;;7.76;100.00
19086;BME280;9675;51.538;6.728;2023-02-11T12:59:42;103149.72;;;7.77;100.00
19086;BME280;9675;51.538;6.728;2023-02-11T13:02:23;103140.06;;;7.74;100.00
19086;BME280;9675;51.538;6.728;2023-02-11T13:04:56;103143.97;;;7.79;100.00
19086;BME280;9675;51.538;6.728;2023-02-11T13:07:31;103142.47;;;7.81;100.00
19086;BME280;9675;51.538;6.728;2023-02-11T13:10:10;103139.91;;;7.81;100.00
19086;BME280;9675;51.538;6.728;2023-02-11T13:12:45;103140.94;;;7.83;100.00
19086;BME280;9675;51.538;6.728;2023-02-11T13:15:32;103144.28;;;7.82;100.00
19086;BME280;9675;51.538;6.728;2023-02-11T13:18:12;103140.19;;;7.84;100.00
19086;BME280;9675;51.538;6.728;2023-02-11T13:20:50;103139.44;;;7.85;100.00
19086;BME280;9675;51.538;6.728;2023-02-11T13:23:27;103138.81;;;7.88;100.00
19086;BME280;9675;51.538;6.728;2023-02-11T13:26:09;103133.69;;;7.88;100.00
19086;BME280;9675;51.538;6.728;2023-02-11T13:28:49;103135.66;;;7.90;100.00
19086;BME280;9675;51.538;6.728;2023-02-11T13:31:24;103138.38;;;7.92;100.00
19086;BME280;9675;51.538;6.728;2023-02-11T13:33:53;103138.50;;;7.93;100.00
19086;BME280;9675;51.538;6.728;2023-02-11T13:36:23;103142.91;;;7.94;100.00